Happy Valentine's Day! 

Flight Track Log - Related Links

Times and Time Zones

All times are in EDT time to prevent confusion due to time zone crossing. See the FLG4208 flight status page for this flight to view local times or setup timezone preferences in your user account.


Time Position Orientation Groundspeed Altitude Reporting Facility
EDT Latitude Longitude Course Direction KTS MPH feet Rate Location/Type
Wed 11:55:22 AM 42.1525 -85.5400 175° South 193 222 4,600  Level Chicago Center
Wed 11:56:24 AM 42.1192 -85.4661 121° Southeast 257 296 7,000 2,304 Climbing Chicago Center
Wed 11:57:00 AM 42.1556 -85.1982 106° East  Level FlightAware Approximate
Wed 11:57:27 AM 42.1131 -85.3508 94° East 279 321 9,400  Level Cleveland Center
Wed 11:58:00 AM 42.1366 -85.1092 106° East  Level FlightAware Approximate
Wed 11:58:27 AM 42.1056 -85.2325 95° East 297 342 11,400  Level Cleveland Center
Wed 11:59:00 AM 42.1175 -85.0203 106° East  Level FlightAware Approximate
Wed 11:59:27 AM 42.0917 -85.1056 98° East 324 373 12,100  Level Cleveland Center
Wed 12:00:27 PM 42.0806 -84.9619 96° East 358 412 12,000 -50 Descending Cleveland Center
Wed 12:01:27 PM 42.0694 -84.8158 96° East 380 437 12,000  Level Cleveland Center
Wed 12:02:27 PM 42.0222 -84.6839 116° Southeast 386 444 12,000  Level Cleveland Center
Wed 12:03:27 PM 41.9594 -84.5711 127° Southeast 380 437 12,000  Level Cleveland Center
Wed 12:04:27 PM 41.9086 -84.4731 125° Southeast 354 407 12,000  Level Cleveland Center
Wed 12:05:27 PM 41.8514 -84.3719 127° Southeast 342 394 12,000  Level Cleveland Center
Wed 12:05:53 PM 41.8386 -84.3153 107° East 341 392 12,000  Level Cleveland Center
Wed 12:06:27 PM 41.8342 -84.2622 96° East 325 374 12,000 90 Level Cleveland Center
Wed 12:07:00 PM 41.8328 -84.1728 91° East 341 392 12,100 100 Climbing Cleveland Center
Wed 12:07:27 PM 41.8278 -84.1336 100° East 325 374 12,100  Level Cleveland Center
Wed 12:08:01 PM 41.8306 -84.0472 88° East 341 392 12,100 -200 Level Cleveland Center
Wed 12:08:27 PM 41.8378 -84.0114 75° East 330 380 11,900 -1,355 Descending Cleveland Center
Wed 12:09:03 PM 41.8753 -83.9464 52° Northeast 311 358 10,700 -1,500 Descending Cleveland Center
Wed 12:09:27 PM 41.8844 -83.9136 69° East 312 359 10,400 -1,400 Descending Cleveland Center
Wed 12:10:03 PM 41.9097 -83.8367 66° East 305 351 9,300 -1,400 Descending Cleveland Center
Wed 12:10:27 PM 41.9167 -83.8092 71° East 302 348 9,000 -1,377 Descending Cleveland Center
Wed 12:11:04 PM 41.9436 -83.7378 63° Northeast 297 342 7,900 -1,400 Descending Cleveland Center
Wed 12:11:27 PM 41.9486 -83.7075 77° East 302 348 7,600 -1,082 Descending Cleveland Center
Wed 12:12:05 PM 41.9444 -83.6317 94° East 242 278 6,800 -1,000 Descending Cleveland Center
Wed 12:12:27 PM 41.9469 -83.6125 80° East 276 318 6,600 -982 Descending Cleveland Center
Wed 12:13:00 PM 41.9692 -83.5603 60° Northeast 212 244 5,900 -800 Descending Cleveland Center
Wed 12:13:27 PM 41.9842 -83.5444 38° Northeast 237 273 5,800 -393 Descending Cleveland Center
Wed 12:14:01 PM 42.0161 -83.5233 26° Northeast 196 226 5,500 -500 Descending Cleveland Center
Wed 12:14:27 PM 42.0289 -83.5100 38° Northeast 184 212 5,300 -1,279 Descending Cleveland Center
Wed 12:15:02 PM 42.0628 -83.4892 25° Northeast 179 206 4,200 -1,700 Descending Cleveland Center
Wed 12:15:27 PM 42.0778 -83.4758 33° Northeast 184 212 3,600 -1,440 Descending Cleveland Center

Login

Don't have an account? Register now (free) for customized features, flight alerts, and more!